createdAt,value
2023-04-27T00:00:02.901Z,86.7
2023-04-27T00:01:17.379Z,86.3
2023-04-27T00:02:31.856Z,86.6
2023-04-27T00:03:46.332Z,86.6
2023-04-27T00:05:00.784Z,86.5
2023-04-27T00:06:15.258Z,86.3
2023-04-27T00:07:29.718Z,86.3
2023-04-27T00:08:44.183Z,86.6
2023-04-27T00:09:58.677Z,86.3
2023-04-27T00:11:13.131Z,86.2
2023-04-27T00:12:27.601Z,86.8
2023-04-27T00:13:41.209Z,87.2
2023-04-27T00:14:55.647Z,87.5
2023-04-27T00:16:10.127Z,87.8
2023-04-27T00:17:24.602Z,87.4
2023-04-27T00:18:39.052Z,88
2023-04-27T00:19:53.544Z,88.1
2023-04-27T00:21:08.014Z,88.6
2023-04-27T00:22:22.458Z,88.5
2023-04-27T00:23:36.925Z,88.5
2023-04-27T00:24:51.404Z,88.9
2023-04-27T00:26:05.889Z,88.7
2023-04-27T00:28:34.826Z,88.4
2023-04-27T00:29:49.289Z,88.8
2023-04-27T00:31:03.763Z,89.2
2023-04-27T00:32:17.336Z,88.1
2023-04-27T00:33:31.816Z,88.7
2023-04-27T00:34:46.272Z,88.9
2023-04-27T00:36:00.760Z,88.2
2023-04-27T00:37:15.230Z,88.2
2023-04-27T00:38:29.694Z,88.9
2023-04-27T00:39:44.166Z,89.2
2023-04-27T00:40:58.638Z,89.5
2023-04-27T00:42:13.089Z,89.9
2023-04-27T00:43:27.563Z,88.9
2023-04-27T00:44:42.013Z,89.8
2023-04-27T00:45:56.487Z,89.9
2023-04-27T00:47:10.981Z,89.8
2023-04-27T00:48:25.442Z,89.4
2023-04-27T00:49:39.896Z,89.7
2023-04-27T00:50:53.501Z,89.8
2023-04-27T00:52:07.966Z,89.9
2023-04-27T00:53:22.426Z,89.9
2023-04-27T00:54:36.884Z,89.6
2023-04-27T00:55:51.359Z,89.9
2023-04-27T00:57:05.835Z,90.8
2023-04-27T00:58:20.309Z,90.9
2023-04-27T00:59:34.775Z,90.3
2023-04-27T01:00:49.234Z,90
2023-04-27T01:02:03.698Z,90.4
2023-04-27T01:03:18.000Z,90.7
2023-04-27T01:04:32.651Z,91.1
2023-04-27T01:05:47.000Z,89.5
2023-04-27T01:07:00.714Z,90.7
2023-04-27T01:08:15.189Z,90.2
2023-04-27T01:09:29.636Z,89.9
2023-04-27T01:10:44.126Z,90.1
2023-04-27T01:11:58.604Z,90.8
2023-04-27T01:13:13.049Z,89.9
2023-04-27T01:14:27.532Z,90.7
2023-04-27T01:15:41.971Z,90.2
2023-04-27T01:16:56.448Z,90.2
2023-04-27T01:18:10.909Z,91
2023-04-27T01:19:25.399Z,90.7
2023-04-27T01:20:39.868Z,90.9
2023-04-27T01:21:54.333Z,91.5
2023-04-27T01:23:07.908Z,91.8
2023-04-27T01:24:22.385Z,92
2023-04-27T01:25:36.862Z,92.2
2023-04-27T01:26:51.313Z,92
2023-04-27T01:28:05.783Z,91.1
2023-04-27T01:29:20.249Z,91.8
2023-04-27T01:30:34.738Z,91.6
2023-04-27T01:31:49.190Z,91.9
2023-04-27T01:33:03.655Z,92.3
2023-04-27T01:34:18.124Z,93.1
2023-04-27T01:35:32.608Z,92.5
2023-04-27T01:36:47.074Z,91.4
2023-04-27T01:38:01.549Z,90.3
2023-04-27T01:39:15.152Z,90.8
2023-04-27T01:40:29.590Z,91.4
2023-04-27T01:42:58.541Z,91
2023-04-27T01:44:12.995Z,90.8
2023-04-27T01:45:27.485Z,90.2
2023-04-27T01:46:41.935Z,90
2023-04-27T01:47:56.398Z,89.6
2023-04-27T01:49:10.901Z,89.3
2023-04-27T01:50:25.344Z,88.9
2023-04-27T01:51:39.802Z,88.5
2023-04-27T01:52:54.275Z,88.6
2023-04-27T01:54:08.743Z,88.9
2023-04-27T01:55:22.349Z,89
2023-04-27T01:56:36.802Z,89.1
2023-04-27T01:57:51.290Z,89.2
2023-04-27T01:59:05.761Z,88.9
2023-04-27T02:00:20.216Z,88.8
2023-04-27T02:01:34.696Z,88.9
2023-04-27T02:02:49.149Z,89.7
2023-04-27T02:04:03.631Z,89.8
2023-04-27T02:05:18.113Z,89.3
2023-04-27T02:06:32.567Z,89.8
2023-04-27T02:07:47.056Z,89.3
2023-04-27T02:09:01.517Z,89.5
2023-04-27T02:10:15.964Z,89.1
2023-04-27T02:11:30.425Z,88.2
2023-04-27T02:12:44.013Z,89.2
2023-04-27T02:13:58.483Z,89.1
2023-04-27T02:15:12.956Z,89.5
2023-04-27T02:16:27.423Z,89.3
2023-04-27T02:17:41.903Z,89.3
2023-04-27T02:20:10.840Z,89.5
2023-04-27T02:21:25.303Z,89
2023-04-27T02:22:39.769Z,88.7
2023-04-27T02:23:54.237Z,89.3
2023-04-27T02:25:08.719Z,89.2
2023-04-27T02:26:23.181Z,89.4
2023-04-27T02:27:37.650Z,89.3
2023-04-27T02:28:51.235Z,89.8
2023-04-27T02:30:05.697Z,89.5
2023-04-27T02:31:20.172Z,90.1
2023-04-27T02:32:34.638Z,90.2
2023-04-27T02:33:49.115Z,90
2023-04-27T02:35:03.585Z,89.8
2023-04-27T02:36:18.045Z,90.6
2023-04-27T02:37:32.517Z,90.5
2023-04-27T02:38:46.996Z,90.3
2023-04-27T02:40:01.456Z,90.6
2023-04-27T02:41:15.933Z,90.9
2023-04-27T02:42:30.390Z,91.2
2023-04-27T02:43:44.862Z,91
2023-04-27T02:44:58.463Z,90.8
2023-04-27T02:46:12.919Z,91.4
2023-04-27T02:47:27.400Z,92.1
2023-04-27T02:48:41.863Z,92.5
2023-04-27T02:49:56.322Z,91.8
2023-04-27T02:51:10.798Z,92.2
2023-04-27T02:52:25.265Z,92.1
2023-04-27T02:53:39.735Z,91.9
2023-04-27T02:54:54.205Z,92
2023-04-27T02:57:23.146Z,93.2
2023-04-27T02:58:37.607Z,92.5
2023-04-27T02:59:52.072Z,92.7
2023-04-27T03:01:05.661Z,92.5
2023-04-27T03:02:20.143Z,92.6
2023-04-27T03:03:34.605Z,92.8
2023-04-27T03:04:49.069Z,92.7
2023-04-27T03:07:18.014Z,93.1
2023-04-27T03:08:32.483Z,93.3
2023-04-27T03:09:46.944Z,93.7
2023-04-27T03:11:01.429Z,94.2
2023-04-27T03:12:15.889Z,94.1
2023-04-27T03:13:30.353Z,94.3
2023-04-27T03:14:44.817Z,94.4
2023-04-27T03:15:59.289Z,93.9
2023-04-27T03:17:12.879Z,93.8
2023-04-27T03:18:27.356Z,93.9
2023-04-27T03:19:41.840Z,93.9
2023-04-27T03:22:10.758Z,93.5
2023-04-27T03:23:24.331Z,93.3
2023-04-27T03:24:37.879Z,93.2
2023-04-27T03:25:52.273Z,93.3
2023-04-27T03:27:06.694Z,93
2023-04-27T03:28:21.121Z,92.9
2023-04-27T03:29:35.526Z,92.9
2023-04-27T03:30:49.938Z,92.2
2023-04-27T03:32:04.367Z,91.8
2023-04-27T03:33:18.774Z,92
2023-04-27T03:34:33.188Z,91.5
2023-04-27T03:35:47.607Z,91.5
2023-04-27T03:37:01.166Z,91.2
2023-04-27T03:38:15.585Z,91.5
2023-04-27T03:39:29.000Z,91.2
2023-04-27T03:40:43.518Z,91
2023-04-27T03:41:57.950Z,90.6
2023-04-27T03:43:12.356Z,91.1
2023-04-27T03:44:26.780Z,91.4
2023-04-27T03:45:41.194Z,91.3
2023-04-27T03:46:55.594Z,92.1
2023-04-27T03:48:10.010Z,93
2023-04-27T03:49:24.439Z,93
2023-04-27T03:50:38.838Z,93.3
2023-04-27T03:51:53.265Z,93.2
2023-04-27T03:53:07.675Z,92.8
2023-04-27T03:54:22.089Z,92.9
2023-04-27T03:55:35.636Z,93.3
2023-04-27T03:56:50.043Z,92.6
2023-04-27T03:58:04.445Z,92.4
2023-04-27T03:59:18.861Z,92.8
2023-04-27T04:00:33.294Z,93
2023-04-27T04:01:47.695Z,92.7
2023-04-27T04:03:02.114Z,92.5
2023-04-27T04:04:16.531Z,92.3
2023-04-27T04:05:30.948Z,91.8
2023-04-27T04:06:45.362Z,92.2
2023-04-27T04:07:59.783Z,92.5
2023-04-27T04:09:14.195Z,92.4
2023-04-27T04:11:43.011Z,91.7
2023-04-27T04:12:57.434Z,92.3
2023-04-27T04:14:10.963Z,92
2023-04-27T04:16:39.815Z,91.5
2023-04-27T04:17:54.221Z,91.3
2023-04-27T04:19:08.625Z,90.9
2023-04-27T04:21:37.471Z,90.8
2023-04-27T04:22:51.879Z,91.1
2023-04-27T04:24:05.440Z,91.5
2023-04-27T04:26:34.253Z,89.8
2023-04-27T04:27:48.669Z,89.9
2023-04-27T04:29:02.214Z,90
2023-04-27T04:31:31.034Z,91.5
2023-04-27T04:32:45.459Z,91.3
2023-04-27T04:33:59.878Z,92
2023-04-27T04:35:14.286Z,92.2
2023-04-27T04:36:28.710Z,92.7
2023-04-27T04:37:43.113Z,92.1
2023-04-27T04:38:57.523Z,92
2023-04-27T04:41:26.369Z,92.6
2023-04-27T04:42:39.920Z,93
2023-04-27T04:43:53.455Z,92.5
2023-04-27T04:45:07.869Z,92.5
2023-04-27T04:46:22.283Z,92.1
2023-04-27T04:47:36.700Z,90.6
2023-04-27T04:48:51.108Z,88.8
2023-04-27T04:51:19.960Z,88.1
2023-04-27T04:52:34.356Z,89.5
2023-04-27T04:53:48.776Z,88.9
2023-04-27T04:56:17.610Z,88
2023-04-27T04:57:32.025Z,87.8
2023-04-27T04:58:46.427Z,87.7
2023-04-27T04:59:59.971Z,86.7
2023-04-27T05:01:14.396Z,85.8
2023-04-27T05:02:28.804Z,85.7
2023-04-27T05:03:43.214Z,85.8
2023-04-27T05:04:57.630Z,86.6
2023-04-27T05:06:12.036Z,87
2023-04-27T05:07:26.444Z,86.5
2023-04-27T05:08:40.867Z,85.4
2023-04-27T05:09:55.287Z,85.7
2023-04-27T05:11:09.698Z,85.4
2023-04-27T05:12:24.118Z,85.2
2023-04-27T05:13:38.529Z,84.6
2023-04-27T05:14:52.944Z,85
2023-04-27T05:16:07.362Z,84.2
2023-04-27T05:17:21.780Z,82.6
2023-04-27T05:18:35.333Z,83.6
2023-04-27T05:21:04.149Z,83.5
2023-04-27T05:22:17.684Z,83.1
2023-04-27T05:23:32.111Z,82.4
2023-04-27T05:26:00.935Z,84.3
2023-04-27T05:27:15.356Z,84.5
2023-04-27T05:28:29.767Z,85.3
2023-04-27T05:30:58.598Z,85.9
2023-04-27T05:32:13.010Z,86.3
2023-04-27T05:33:27.420Z,85.9
2023-04-27T05:34:41.844Z,85.7
2023-04-27T05:35:56.256Z,85.3
2023-04-27T05:37:10.664Z,85.3
2023-04-27T05:38:24.218Z,85.5
2023-04-27T05:40:52.183Z,84.8
2023-04-27T05:42:06.581Z,84.8
2023-04-27T05:43:21.009Z,85.9
2023-04-27T05:45:49.831Z,86.3
2023-04-27T05:47:04.252Z,87
2023-04-27T05:48:18.655Z,86.9
2023-04-27T05:49:33.081Z,87.9
2023-04-27T05:50:47.504Z,87.3
2023-04-27T05:52:01.908Z,87.5
2023-04-27T05:53:16.336Z,87.7
2023-04-27T05:55:45.149Z,85.8
2023-04-27T05:56:58.689Z,85.6
2023-04-27T05:58:13.098Z,85.7
2023-04-27T05:59:27.521Z,85.3
2023-04-27T06:00:41.923Z,85.9
2023-04-27T06:01:56.344Z,86.2
2023-04-27T06:03:10.758Z,86.1
2023-04-27T06:04:24.300Z,85.5
2023-04-27T06:05:38.715Z,85.8
2023-04-27T06:06:53.126Z,86.1
2023-04-27T06:08:07.539Z,85.8
2023-04-27T06:10:36.375Z,86.8
2023-04-27T06:11:50.775Z,85.4
2023-04-27T06:13:05.199Z,84
2023-04-27T06:15:34.041Z,82.1
2023-04-27T06:16:48.440Z,82.7
2023-04-27T06:18:02.847Z,81.5
2023-04-27T06:19:17.277Z,81.2
2023-04-27T06:20:31.687Z,83
2023-04-27T06:21:45.218Z,81.4
2023-04-27T06:22:59.635Z,80.2
2023-04-27T06:25:28.484Z,79.6
2023-04-27T06:26:42.887Z,78.3
2023-04-27T06:27:57.301Z,78.3
2023-04-27T06:30:26.137Z,79
2023-04-27T06:31:40.541Z,78.8
2023-04-27T06:32:54.960Z,78.5
2023-04-27T06:35:23.786Z,76.5
2023-04-27T06:36:38.183Z,76.8
2023-04-27T06:37:51.746Z,76.5
2023-04-27T06:39:06.149Z,76.7
2023-04-27T06:40:20.571Z,76.4
2023-04-27T06:41:34.969Z,73.3
2023-04-27T06:42:49.389Z,72.2
2023-04-27T06:44:03.804Z,71.7
2023-04-27T06:45:18.208Z,74.7
2023-04-27T06:46:32.620Z,74
2023-04-27T06:47:47.047Z,74.2
2023-04-27T06:50:15.875Z,73.7
2023-04-27T06:51:30.296Z,71.1
2023-04-27T06:52:44.705Z,71.2
2023-04-27T06:55:12.655Z,67.9
2023-04-27T06:56:27.052Z,68.3
2023-04-27T06:57:41.465Z,69.3
2023-04-27T06:58:55.885Z,71.4
2023-04-27T07:00:10.299Z,72.3
2023-04-27T07:01:24.710Z,75.6
2023-04-27T07:02:39.141Z,67.7
2023-04-27T07:05:07.951Z,67.5
2023-04-27T07:06:22.374Z,63.7
2023-04-27T07:07:36.789Z,63.6
2023-04-27T07:10:05.608Z,63.4
2023-04-27T07:11:19.154Z,63.2
2023-04-27T07:12:33.558Z,61.6
2023-04-27T07:13:47.974Z,66.2
2023-04-27T07:15:02.409Z,64.7
2023-04-27T07:16:16.817Z,60.2
2023-04-27T07:17:31.231Z,61.7
2023-04-27T07:20:00.041Z,64.9
2023-04-27T07:21:14.461Z,64.3
2023-04-27T07:22:28.893Z,62.8
2023-04-27T07:23:43.301Z,61.1
2023-04-27T07:24:57.720Z,60.7
2023-04-27T07:26:12.121Z,60.2
2023-04-27T07:27:25.659Z,57.8
2023-04-27T07:28:40.090Z,58.9
2023-04-27T07:29:54.492Z,61.8
2023-04-27T07:31:08.895Z,62.6
2023-04-27T07:32:23.317Z,61
2023-04-27T07:33:37.749Z,61.9
2023-04-27T07:34:52.141Z,59
2023-04-27T07:36:05.708Z,58.6
2023-04-27T07:37:19.250Z,62.5
2023-04-27T07:38:33.655Z,61.1
2023-04-27T07:39:48.053Z,61.7
2023-04-27T07:41:02.478Z,59
2023-04-27T07:42:16.892Z,58.3
2023-04-27T07:44:45.718Z,59.8
2023-04-27T07:46:00.131Z,59.4
2023-04-27T07:47:14.569Z,61.4
2023-04-27T07:49:43.384Z,62
2023-04-27T07:50:57.794Z,61.3
2023-04-27T07:52:11.339Z,60.9
2023-04-27T07:53:24.880Z,58.7
2023-04-27T07:54:39.286Z,58.6
2023-04-27T07:55:53.710Z,58.5
2023-04-27T07:57:08.139Z,58.7
2023-04-27T07:58:22.528Z,59.4
2023-04-27T07:59:36.969Z,61.1
2023-04-27T08:00:51.374Z,60
2023-04-27T08:02:05.795Z,58.5
2023-04-27T08:04:34.600Z,59.1
2023-04-27T08:05:49.023Z,59.5
2023-04-27T08:07:03.432Z,62.2
2023-04-27T08:09:32.267Z,57.6
2023-04-27T08:10:45.799Z,57.5
2023-04-27T08:12:00.211Z,55.5
2023-04-27T08:14:29.041Z,57.6
2023-04-27T08:15:43.469Z,58.3
2023-04-27T08:16:57.880Z,57.5
2023-04-27T08:18:12.301Z,55.1
2023-04-27T08:19:26.691Z,53.4
2023-04-27T08:20:41.126Z,54.1
2023-04-27T08:21:55.533Z,54.8
2023-04-27T08:24:24.368Z,56.7
2023-04-27T08:25:38.761Z,54.8
2023-04-27T08:26:53.187Z,53.6
2023-04-27T08:28:06.726Z,55.1
2023-04-27T08:29:21.147Z,52.6
2023-04-27T08:30:35.550Z,52.8
2023-04-27T08:31:49.953Z,53.5
2023-04-27T08:33:04.393Z,53
2023-04-27T08:34:18.787Z,50.3
2023-04-27T08:35:33.217Z,51.3
2023-04-27T08:36:47.608Z,51.6
2023-04-27T08:39:16.452Z,51.1
2023-04-27T08:40:30.877Z,51.3
2023-04-27T08:41:45.272Z,49.5
2023-04-27T08:42:59.707Z,50.4
2023-04-27T08:44:14.096Z,50.5
2023-04-27T08:45:28.524Z,51.1
2023-04-27T08:46:42.041Z,52
2023-04-27T08:47:56.460Z,52.5
2023-04-27T08:49:10.892Z,51.8
2023-04-27T08:50:24.456Z,51.1
2023-04-27T08:51:37.969Z,49.6
2023-04-27T08:54:06.812Z,51.4
2023-04-27T08:55:21.200Z,49
2023-04-27T08:56:35.622Z,48.4
2023-04-27T08:57:50.043Z,51.5
2023-04-27T08:59:04.444Z,49.3
2023-04-27T09:00:18.874Z,49.7
2023-04-27T09:01:33.276Z,49.7
2023-04-27T09:02:47.698Z,49.6
2023-04-27T09:04:02.120Z,47.9
2023-04-27T09:05:16.517Z,48.6
2023-04-27T09:06:30.940Z,49.9
2023-04-27T09:07:44.466Z,50.5
2023-04-27T09:08:58.899Z,50.5
2023-04-27T09:10:13.295Z,47.4
2023-04-27T09:11:27.699Z,46.3
2023-04-27T09:13:56.542Z,46.9
2023-04-27T09:15:10.107Z,46.8
2023-04-27T09:16:23.625Z,46.6
2023-04-27T09:17:38.046Z,47.8
2023-04-27T09:18:52.452Z,50.1
2023-04-27T09:20:06.873Z,50.2
2023-04-27T09:21:21.267Z,46.8
2023-04-27T09:23:50.110Z,47
2023-04-27T09:25:04.516Z,43.9
2023-04-27T09:26:18.923Z,47.2
2023-04-27T09:28:47.766Z,45.7
2023-04-27T09:30:02.178Z,44.8
2023-04-27T09:31:16.577Z,45.9
2023-04-27T09:33:44.523Z,46.2
2023-04-27T09:34:58.937Z,44.3
2023-04-27T09:36:13.360Z,45.6
2023-04-27T09:37:27.783Z,45.3
2023-04-27T09:38:42.184Z,46
2023-04-27T09:39:56.595Z,46
2023-04-27T09:41:11.033Z,44.3
2023-04-27T09:42:25.450Z,43.3
2023-04-27T09:43:39.845Z,44.7
2023-04-27T09:44:54.244Z,43
2023-04-27T09:46:08.683Z,42.3
2023-04-27T09:47:23.092Z,42.8
2023-04-27T09:48:37.489Z,43.4
2023-04-27T09:49:51.044Z,43.1
2023-04-27T09:51:05.453Z,45.8
2023-04-27T09:52:19.864Z,45.8
2023-04-27T09:53:34.269Z,48.3
2023-04-27T09:54:47.822Z,49.5
2023-04-27T09:56:01.371Z,47.5
2023-04-27T09:57:15.782Z,48
2023-04-27T09:58:30.197Z,48.1
2023-04-27T09:59:44.607Z,48.7
2023-04-27T10:00:59.029Z,48.4
2023-04-27T10:03:27.834Z,50.5
2023-04-27T10:04:42.274Z,48
2023-04-27T10:05:56.676Z,50.5
2023-04-27T10:08:25.512Z,48
2023-04-27T10:09:39.916Z,48.3
2023-04-27T10:10:53.484Z,50.9
2023-04-27T10:12:06.993Z,50.7
2023-04-27T10:13:20.535Z,49.3
2023-04-27T10:14:34.951Z,51.1
2023-04-27T10:17:03.771Z,49.3
2023-04-27T10:18:18.198Z,50
2023-04-27T10:19:32.619Z,48.1
2023-04-27T10:20:47.036Z,49.4
2023-04-27T10:22:01.428Z,48.3
2023-04-27T10:24:30.256Z,49.5
2023-04-27T10:26:59.101Z,48.8
2023-04-27T10:28:13.498Z,48.6
2023-04-27T10:29:27.038Z,48.1
2023-04-27T10:30:41.445Z,48.2
2023-04-27T10:31:55.854Z,47.6
2023-04-27T10:33:10.288Z,47.8
2023-04-27T10:34:24.713Z,47.5
2023-04-27T10:35:39.110Z,47.3
2023-04-27T10:36:53.530Z,49.4
2023-04-27T10:38:07.938Z,50.8
2023-04-27T10:39:22.336Z,50.4
2023-04-27T10:40:36.760Z,50.5
2023-04-27T10:41:51.166Z,50
2023-04-27T10:43:05.582Z,49.4
2023-04-27T10:44:20.007Z,48.7
2023-04-27T10:45:33.527Z,46.4
2023-04-27T10:46:47.955Z,46.7
2023-04-27T10:48:02.360Z,46.4
2023-04-27T10:49:16.765Z,47.9
2023-04-27T10:50:30.341Z,47.3
2023-04-27T10:52:59.159Z,48.8
2023-04-27T10:54:12.690Z,47.4
2023-04-27T10:56:41.514Z,45.5
2023-04-27T10:57:55.926Z,45.6
2023-04-27T10:59:10.363Z,47.6
2023-04-27T11:00:24.776Z,48.2
2023-04-27T11:01:39.165Z,45.9
2023-04-27T11:02:53.605Z,47.8
2023-04-27T11:04:08.011Z,50.2
2023-04-27T11:05:22.435Z,50
2023-04-27T11:06:36.841Z,50.9
2023-04-27T11:07:51.251Z,49.3
2023-04-27T11:09:05.670Z,50.1
2023-04-27T11:11:33.618Z,49.5
2023-04-27T11:12:48.029Z,49.6
2023-04-27T11:14:01.585Z,48.7
2023-04-27T11:16:29.541Z,49.4
2023-04-27T11:17:43.962Z,48.4
2023-04-27T11:18:58.367Z,50.1
2023-04-27T11:20:12.771Z,50.2
2023-04-27T11:21:27.188Z,49.1
2023-04-27T11:22:41.616Z,48.6
2023-04-27T11:23:56.023Z,50
2023-04-27T11:25:10.426Z,49.2
2023-04-27T11:26:24.844Z,49.5
2023-04-27T11:27:39.263Z,47.7
2023-04-27T11:28:52.806Z,46.7
2023-04-27T11:30:06.349Z,45.8
2023-04-27T11:31:20.761Z,46.8
2023-04-27T11:32:35.184Z,46.5
2023-04-27T11:33:49.580Z,47.5
2023-04-27T11:35:04.005Z,46.8
2023-04-27T11:36:18.410Z,46.9
2023-04-27T11:37:32.837Z,48.3
2023-04-27T11:38:47.239Z,51.1
2023-04-27T11:40:01.650Z,51.5
2023-04-27T11:41:16.070Z,46.9
2023-04-27T11:42:30.490Z,45.4
2023-04-27T11:43:44.893Z,47.8
2023-04-27T11:44:58.458Z,46.5
2023-04-27T11:46:12.874Z,43.4
2023-04-27T11:47:26.405Z,44.5
2023-04-27T11:48:40.827Z,45.3
2023-04-27T11:49:55.234Z,47.2
2023-04-27T11:52:24.059Z,46.5
2023-04-27T11:53:38.484Z,44.1
2023-04-27T11:54:52.883Z,45
2023-04-27T11:56:07.303Z,41.9
2023-04-27T11:57:21.709Z,43.7
2023-04-27T11:58:36.123Z,45.1
2023-04-27T11:59:50.546Z,44
2023-04-27T12:01:04.962Z,40.3
2023-04-27T12:02:19.361Z,40.4
2023-04-27T12:03:33.783Z,38.6
2023-04-27T12:04:47.319Z,41.3
2023-04-27T12:06:01.735Z,42.4
2023-04-27T12:07:16.147Z,42
2023-04-27T12:09:44.975Z,41.3
2023-04-27T12:10:58.534Z,42.9
2023-04-27T12:12:12.053Z,42.2
2023-04-27T12:13:26.474Z,44.1
2023-04-27T12:14:40.882Z,45.3
2023-04-27T12:15:55.308Z,44.6
2023-04-27T12:17:09.709Z,43.7
2023-04-27T12:18:24.128Z,43.4
2023-04-27T12:19:38.553Z,43.8
2023-04-27T12:20:52.955Z,43.1
2023-04-27T12:22:07.361Z,42.9
2023-04-27T12:23:21.788Z,43.6
2023-04-27T12:24:36.192Z,43.6
2023-04-27T12:25:50.615Z,43.4
2023-04-27T12:27:04.161Z,42
2023-04-27T12:29:32.115Z,44
2023-04-27T12:30:46.534Z,40.7
2023-04-27T12:32:00.934Z,43
2023-04-27T12:33:15.355Z,41.4
2023-04-27T12:34:29.759Z,42.2
2023-04-27T12:35:44.176Z,42
2023-04-27T12:36:58.595Z,43
2023-04-27T12:38:12.999Z,42.8
2023-04-27T12:39:27.423Z,44.9
2023-04-27T12:40:41.831Z,44.5
2023-04-27T12:41:56.253Z,45.4
2023-04-27T12:43:10.671Z,43.7
2023-04-27T12:44:25.073Z,44.7
2023-04-27T12:45:38.623Z,44
2023-04-27T12:46:53.021Z,45
2023-04-27T12:49:21.847Z,43
2023-04-27T12:50:36.258Z,45.1
2023-04-27T12:51:50.674Z,45
2023-04-27T12:54:19.503Z,44.8
2023-04-27T12:55:33.918Z,42.5
2023-04-27T12:56:48.345Z,42
2023-04-27T12:58:02.758Z,42.6
2023-04-27T12:59:17.153Z,42
2023-04-27T13:00:31.566Z,40.7
2023-04-27T13:01:45.992Z,42.5
2023-04-27T13:04:13.936Z,40.4
2023-04-27T13:05:28.350Z,40.6
2023-04-27T13:06:41.901Z,38.8
2023-04-27T13:09:10.723Z,39.3
2023-04-27T13:10:24.261Z,40.9
2023-04-27T13:11:38.691Z,39.8
2023-04-27T13:12:53.094Z,40
2023-04-27T13:14:07.498Z,38.5
2023-04-27T13:15:21.923Z,37.5
2023-04-27T13:16:36.348Z,38.9
2023-04-27T13:17:50.758Z,38.9
2023-04-27T13:19:05.165Z,36.8
2023-04-27T13:20:19.574Z,35.7
2023-04-27T13:21:33.124Z,37.1
2023-04-27T13:24:01.080Z,36.3
2023-04-27T13:25:15.489Z,35.9
2023-04-27T13:26:29.915Z,36.7
2023-04-27T13:27:44.326Z,37.4
2023-04-27T13:28:58.745Z,35
2023-04-27T13:30:13.138Z,36.9
2023-04-27T13:31:27.552Z,35.3
2023-04-27T13:32:41.977Z,35
2023-04-27T13:33:56.388Z,36.7
2023-04-27T13:35:10.807Z,37.8
2023-04-27T13:36:25.224Z,36.8
2023-04-27T13:37:39.629Z,34.6
2023-04-27T13:38:53.155Z,36.4
2023-04-27T13:40:07.583Z,37.2
2023-04-27T13:41:22.001Z,37.1
2023-04-27T13:43:50.822Z,36.5
2023-04-27T13:45:05.226Z,35.7
2023-04-27T13:46:19.651Z,37.8
2023-04-27T13:47:34.076Z,36.8
2023-04-27T13:48:48.466Z,38.8
2023-04-27T13:50:02.899Z,37.6
2023-04-27T13:51:17.292Z,35.4
2023-04-27T13:53:46.132Z,38.2
2023-04-27T13:55:00.553Z,37.7
2023-04-27T13:56:14.070Z,37.9
2023-04-27T13:58:42.917Z,37.2
2023-04-27T13:59:57.324Z,38.7
2023-04-27T14:01:11.733Z,36.6
2023-04-27T14:02:26.135Z,33.4
2023-04-27T14:03:39.704Z,31.8
2023-04-27T14:04:54.104Z,33.9
2023-04-27T14:06:07.645Z,32.6
2023-04-27T14:07:22.063Z,31.1
2023-04-27T14:08:36.490Z,32.1
2023-04-27T14:09:50.878Z,34
2023-04-27T14:11:05.307Z,33
2023-04-27T14:12:19.709Z,34
2023-04-27T14:13:34.120Z,32.2
2023-04-27T14:14:48.554Z,35.4
2023-04-27T14:16:02.958Z,36.6
2023-04-27T14:17:16.512Z,36.4
2023-04-27T14:18:30.067Z,36
2023-04-27T14:19:44.455Z,34.6
2023-04-27T14:22:13.296Z,33.5
2023-04-27T14:23:26.814Z,33.3
2023-04-27T14:24:41.250Z,33.4
2023-04-27T14:27:10.076Z,35.3
2023-04-27T14:28:24.473Z,34.8
2023-04-27T14:29:38.882Z,34.6
2023-04-27T14:30:53.295Z,34
2023-04-27T14:32:07.719Z,32.7
2023-04-27T14:33:21.271Z,32.7
2023-04-27T14:34:35.679Z,31.9
2023-04-27T14:37:03.639Z,31
2023-04-27T14:38:18.050Z,32
2023-04-27T14:39:32.469Z,32
2023-04-27T14:42:01.290Z,31.8
2023-04-27T14:43:15.695Z,32.5
2023-04-27T14:44:30.116Z,31.6
2023-04-27T14:45:44.535Z,31.8
2023-04-27T14:46:58.949Z,32.1
2023-04-27T14:48:13.361Z,30.6
2023-04-27T14:49:26.914Z,31.3
2023-04-27T14:50:41.326Z,34.1
2023-04-27T14:51:54.861Z,31.9
2023-04-27T14:53:09.268Z,32
2023-04-27T14:54:23.688Z,33.4
2023-04-27T14:55:38.104Z,31.4
2023-04-27T14:56:52.511Z,31.7
2023-04-27T14:58:06.921Z,31.3
2023-04-27T14:59:21.337Z,32.9
2023-04-27T15:00:35.779Z,33.8
2023-04-27T15:01:50.192Z,35.8
2023-04-27T15:03:03.746Z,35.3
2023-04-27T15:04:17.276Z,33.1
2023-04-27T15:05:31.684Z,33.7
2023-04-27T15:06:46.100Z,32.8
2023-04-27T15:08:00.513Z,32.8
2023-04-27T15:09:14.913Z,34.2
2023-04-27T15:11:43.749Z,32.3
2023-04-27T15:12:58.174Z,33.4
2023-04-27T15:14:12.572Z,33.9
2023-04-27T15:15:26.984Z,34.3
2023-04-27T15:16:41.394Z,34.8
2023-04-27T15:17:55.823Z,34.4
2023-04-27T15:19:10.237Z,34.9
2023-04-27T15:21:38.172Z,36.7
2023-04-27T15:22:52.583Z,36.4
2023-04-27T15:24:06.993Z,35.1
2023-04-27T15:25:20.569Z,35.5
2023-04-27T15:26:34.970Z,37.2
2023-04-27T15:27:49.382Z,38.4
2023-04-27T15:29:02.919Z,38
2023-04-27T15:30:17.332Z,35.5
2023-04-27T15:31:31.751Z,33.4
2023-04-27T15:32:46.177Z,33.5
2023-04-27T15:34:00.579Z,35.3
2023-04-27T15:35:14.990Z,36.4
2023-04-27T15:36:29.398Z,36.4
2023-04-27T15:37:43.808Z,37.2
2023-04-27T15:38:57.378Z,36.4
2023-04-27T15:40:10.900Z,36.2
2023-04-27T15:41:25.323Z,36.9
2023-04-27T15:42:39.744Z,37.3
2023-04-27T15:43:54.148Z,37.2
2023-04-27T15:45:08.563Z,36
2023-04-27T15:46:22.973Z,35.3
2023-04-27T15:47:37.392Z,34.7
2023-04-27T15:48:51.811Z,35.4
2023-04-27T15:50:06.218Z,35.3
2023-04-27T15:51:20.622Z,34.1
2023-04-27T15:52:34.199Z,35
2023-04-27T15:53:47.729Z,36.2
2023-04-27T15:56:16.556Z,37.7
2023-04-27T15:57:30.972Z,37.6
2023-04-27T15:58:45.388Z,38
2023-04-27T15:59:59.781Z,38.6
2023-04-27T16:01:14.203Z,39
2023-04-27T16:02:28.615Z,39
2023-04-27T16:03:43.032Z,37
2023-04-27T16:04:57.441Z,38.7
2023-04-27T16:06:11.876Z,39.2
2023-04-27T16:07:26.295Z,39.6
2023-04-27T16:08:40.693Z,38.9
2023-04-27T16:11:09.515Z,38.8
2023-04-27T16:12:23.083Z,39.7
2023-04-27T16:13:36.638Z,40.2
2023-04-27T16:14:51.017Z,39.5
2023-04-27T16:16:05.435Z,40.4
2023-04-27T16:17:19.867Z,40.8
2023-04-27T16:18:34.264Z,40.7
2023-04-27T16:21:03.098Z,40.2
2023-04-27T16:22:17.500Z,42.2
2023-04-27T16:23:31.920Z,42.6
2023-04-27T16:24:46.345Z,41
2023-04-27T16:26:00.756Z,41.7
2023-04-27T16:27:15.174Z,42.4
2023-04-27T16:28:29.571Z,42.1
2023-04-27T16:29:44.000Z,40.8
2023-04-27T16:30:58.424Z,42.5
2023-04-27T16:32:12.826Z,43.6
2023-04-27T16:33:27.244Z,43
2023-04-27T16:34:40.766Z,43.2
2023-04-27T16:35:55.185Z,44
2023-04-27T16:37:09.586Z,44.1
2023-04-27T16:38:23.998Z,44.5
2023-04-27T16:39:37.576Z,44.3
2023-04-27T16:40:51.089Z,45.1
2023-04-27T16:42:05.517Z,45.8
2023-04-27T16:43:19.914Z,45.5
2023-04-27T16:44:34.337Z,46.3
2023-04-27T16:45:48.749Z,46.3
2023-04-27T16:47:03.176Z,45.1
2023-04-27T16:48:17.572Z,45.5
2023-04-27T16:49:31.996Z,45.7
2023-04-27T16:50:46.406Z,46.2
2023-04-27T16:52:00.825Z,45.8
2023-04-27T16:53:15.256Z,45.8
2023-04-27T16:54:29.643Z,47.3
2023-04-27T16:55:44.063Z,46.6
2023-04-27T16:56:57.599Z,46.9
2023-04-27T16:58:12.026Z,46.7
2023-04-27T16:59:26.435Z,47.3
2023-04-27T17:00:40.836Z,48.2
2023-04-27T17:01:55.242Z,48.5
2023-04-27T17:03:09.675Z,47.7
2023-04-27T17:04:24.102Z,48.4
2023-04-27T17:06:52.920Z,48.8
2023-04-27T17:08:07.350Z,47.4
2023-04-27T17:09:21.747Z,48.9
2023-04-27T17:10:36.143Z,48.2
2023-04-27T17:11:50.558Z,48.7
2023-04-27T17:14:18.504Z,49
2023-04-27T17:15:32.917Z,48
2023-04-27T17:16:47.343Z,47.4
2023-04-27T17:18:01.763Z,47.4
2023-04-27T17:19:16.177Z,47.7
2023-04-27T17:20:30.601Z,49.3
2023-04-27T17:21:44.983Z,49
2023-04-27T17:22:59.429Z,48
2023-04-27T17:24:13.824Z,48.3
2023-04-27T17:25:28.233Z,47.6
2023-04-27T17:26:42.642Z,48.4
2023-04-27T17:27:57.070Z,49.2
2023-04-27T17:29:10.591Z,48.2
2023-04-27T17:30:25.026Z,49.7
2023-04-27T17:31:39.420Z,49.4
2023-04-27T17:34:08.246Z,48.4
2023-04-27T17:35:22.675Z,49.6
2023-04-27T17:36:37.075Z,49.3
2023-04-27T17:37:51.504Z,49.5
2023-04-27T17:39:05.902Z,50
2023-04-27T17:40:20.329Z,50.3
2023-04-27T17:41:34.754Z,50.1
2023-04-27T17:44:03.569Z,51.3
2023-04-27T17:45:17.096Z,51.1
2023-04-27T17:46:31.508Z,51.5
2023-04-27T17:47:45.932Z,53
2023-04-27T17:49:00.368Z,53.1
2023-04-27T17:50:14.780Z,53.4
2023-04-27T17:51:29.172Z,54
2023-04-27T17:53:58.010Z,53.8
2023-04-27T17:55:11.567Z,54.6
2023-04-27T17:56:25.118Z,55.5
2023-04-27T17:57:39.533Z,54.9
2023-04-27T17:58:53.928Z,55.9
2023-04-27T18:00:08.345Z,56.5
2023-04-27T18:01:22.742Z,57
2023-04-27T18:02:37.168Z,56.8
2023-04-27T18:03:51.571Z,56.9
2023-04-27T18:05:05.995Z,57.6
2023-04-27T18:06:20.431Z,58.6
2023-04-27T18:07:34.827Z,58.6
2023-04-27T18:08:48.370Z,58
2023-04-27T18:10:02.800Z,58